Time;durP1;ratioP1;P1;durP2;ratioP2;P2;SDS_P1;SDS_P2;PMS_P1;PMS_P2;Temp;Humidity;BMP_temperature;BMP_pressure;BME280_temperature;BME280_humidity;BME280_pressure;Samples;Min_cycle;Max_cycle;Signal;HPM_P1;HPM_P2
2022/04/17 00:01:32;;;;;;;6.43;2.50;;;20.30;56.60;;;;;;5012343;28;20379;-59
2022/04/17 00:03:58;;;;;;;10.27;2.92;;;20.30;56.60;;;;;;5017967;28;20025;-59
2022/04/17 00:06:23;;;;;;;7.43;3.20;;;20.30;56.60;;;;;;5015696;28;20045;-59
2022/04/17 00:08:49;;;;;;;7.63;2.83;;;20.30;56.40;;;;;;5022285;28;20025;-59
2022/04/17 00:11:15;;;;;;;7.28;2.50;;;20.30;56.70;;;;;;5019184;28;20458;-59
2022/04/17 00:13:42;;;;;;;5.68;2.75;;;20.30;56.70;;;;;;5015014;28;20056;-58
2022/04/17 00:16:08;;;;;;;5.13;2.53;;;20.30;56.70;;;;;;5016180;28;20529;-59
2022/04/17 00:18:33;;;;;;;4.88;2.45;;;20.30;56.90;;;;;;5013879;28;20038;-58
2022/04/17 00:20:59;;;;;;;5.78;2.60;;;20.20;56.80;;;;;;5013608;28;20854;-59
2022/04/17 00:23:25;;;;;;;7.60;2.58;;;20.20;56.80;;;;;;5016431;28;20040;-59
2022/04/17 00:25:50;;;;;;;5.45;2.60;;;20.20;56.80;;;;;;5013506;28;20222;-59
2022/04/17 00:28:16;;;;;;;4.78;2.40;;;20.20;56.80;;;;;;5014089;28;20490;-59
2022/04/17 00:30:41;;;;;;;4.05;2.30;;;20.20;56.80;;;;;;5015216;28;20030;-59
2022/04/17 00:33:07;;;;;;;7.15;2.65;;;20.20;56.80;;;;;;5012659;28;20033;-59
2022/04/17 00:35:34;;;;;;;4.75;2.45;;;20.20;56.80;;;;;;5013242;28;20044;-59
2022/04/17 00:37:59;;;;;;;4.22;2.38;;;20.20;56.90;;;;;;5017876;28;22235;-59
2022/04/17 00:40:25;;;;;;;5.07;2.42;;;20.20;56.90;;;;;;5016242;28;20102;-59
2022/04/17 00:42:51;;;;;;;6.35;2.70;;;20.10;56.80;;;;;;5017740;28;20112;-59
2022/04/17 00:45:16;;;;;;;5.78;2.28;;;20.10;56.80;;;;;;5017008;28;20033;-59
2022/04/17 00:47:42;;;;;;;4.78;2.50;;;20.10;56.80;;;;;;5020958;28;20025;-58
2022/04/17 00:50:08;;;;;;;5.43;2.50;;;20.10;56.80;;;;;;5017922;28;20033;-59
2022/04/17 00:52:34;;;;;;;3.72;2.25;;;20.10;56.80;;;;;;5017912;28;20033;-59
2022/04/17 00:55:01;;;;;;;6.13;2.38;;;20.10;56.80;;;;;;5018165;28;20436;-59
2022/04/17 00:57:27;;;;;;;7.75;2.50;;;20.10;56.80;;;;;;5017939;28;20052;-59
2022/04/17 00:59:52;;;;;;;5.55;2.60;;;20.10;56.80;;;;;;5015361;28;20029;-59
2022/04/17 01:02:18;;;;;;;4.47;2.60;;;20.00;56.70;;;;;;5016193;28;20452;-58
2022/04/17 01:04:44;;;;;;;4.13;2.35;;;20.00;56.70;;;;;;5016234;28;20065;-58
2022/04/17 01:07:10;;;;;;;5.53;2.40;;;20.00;56.80;;;;;;5017553;28;20029;-59
2022/04/17 01:09:36;;;;;;;6.30;2.70;;;20.00;56.80;;;;;;5023406;28;20165;-58
2022/04/17 01:12:02;;;;;;;5.45;2.50;;;20.00;56.70;;;;;;5021348;28;20120;-59
2022/04/17 01:14:27;;;;;;;3.85;2.35;;;20.00;56.80;;;;;;5017799;28;20036;-59
2022/04/17 01:16:53;;;;;;;4.05;2.20;;;20.00;56.80;;;;;;5020335;28;20407;-59
2022/04/17 01:19:19;;;;;;;4.00;2.40;;;20.00;56.80;;;;;;5016793;28;20033;-59
2022/04/17 01:21:49;;;;;;;5.20;2.40;;;20.00;56.90;;;;;;5018662;28;20033;-58
2022/04/17 01:27:00;;;;;;;4.55;2.47;;;20.00;56.90;;;;;;5016711;28;20058;-59
2022/04/17 01:29:27;;;;;;;4.90;2.38;;;19.90;56.80;;;;;;5015206;28;20107;-59
2022/04/17 01:31:53;;;;;;;5.15;2.50;;;19.90;56.80;;;;;;5016725;28;20030;-59
2022/04/17 01:34:20;;;;;;;3.90;2.20;;;19.90;56.80;;;;;;5017155;28;20029;-59
2022/04/17 01:36:46;;;;;;;3.88;2.20;;;19.90;56.80;;;;;;5017337;28;20080;-59
2022/04/17 01:39:12;;;;;;;7.93;2.60;;;19.90;56.80;;;;;;5017474;28;20030;-59
2022/04/17 01:41:38;;;;;;;4.63;2.33;;;19.90;56.90;;;;;;5015727;28;20029;-59
2022/04/17 01:44:04;;;;;;;4.82;2.50;;;19.90;56.80;;;;;;5016507;28;20512;-59
2022/04/17 01:46:30;;;;;;;4.03;2.35;;;19.80;56.70;;;;;;5015636;28;20589;-59
2022/04/17 01:48:56;;;;;;;4.45;2.30;;;19.80;56.80;;;;;;5015576;28;20044;-59
2022/04/17 01:51:23;;;;;;;4.43;2.50;;;19.80;56.80;;;;;;5016864;28;22245;-59
2022/04/17 01:53:48;;;;;;;5.28;2.30;;;19.80;56.90;;;;;;5016186;28;20022;-59
2022/04/17 01:56:14;;;;;;;3.85;2.30;;;19.80;56.90;;;;;;5016267;28;20038;-58
2022/04/17 01:58:40;;;;;;;4.88;2.40;;;19.80;56.90;;;;;;5016380;28;20513;-59
2022/04/17 02:01:05;;;;;;;5.72;2.35;;;19.80;57.00;;;;;;5017430;28;20462;-59
2022/04/17 02:03:31;;;;;;;4.57;2.40;;;19.80;57.00;;;;;;5016857;28;20620;-59
2022/04/17 02:05:57;;;;;;;4.25;2.40;;;19.70;57.00;;;;;;5015435;28;20418;-59
2022/04/17 02:08:23;;;;;;;5.50;2.50;;;19.80;57.00;;;;;;5017766;28;20033;-59
2022/04/17 02:10:49;;;;;;;4.82;2.40;;;19.70;57.00;;;;;;5015657;28;20418;-58
2022/04/17 02:13:15;;;;;;;5.22;2.38;;;19.70;57.00;;;;;;5017661;28;20037;-58
2022/04/17 02:15:41;;;;;;;5.88;2.30;;;19.70;57.10;;;;;;5019294;28;20563;-58
2022/04/17 02:18:07;;;;;;;3.97;2.20;;;19.70;57.00;;;;;;5016793;28;20033;-59
2022/04/17 02:20:32;;;;;;;3.78;2.47;;;19.70;57.10;;;;;;5016388;28;20426;-59
2022/04/17 02:22:58;;;;;;;3.92;2.20;;;19.70;57.00;;;;;;5016250;28;20043;-59
2022/04/17 02:25:25;;;;;;;4.88;2.35;;;19.70;57.00;;;;;;5016434;28;20037;-59
2022/04/17 02:27:51;;;;;;;3.63;2.25;;;19.60;57.00;;;;;;5016888;28;20534;-59
2022/04/17 02:30:16;;;;;;;5.13;2.30;;;19.60;57.00;;;;;;5016831;28;20036;-58
2022/04/17 02:32:42;;;;;;;4.72;2.05;;;19.60;57.00;;;;;;5018499;28;20095;-59
2022/04/17 02:35:08;;;;;;;4.45;2.30;;;19.70;57.10;;;;;;5015009;28;20033;-59
2022/04/17 02:37:37;;;;;;;3.88;2.20;;;19.60;57.00;;;;;;5013442;28;20041;-58
2022/04/17 02:40:03;;;;;;;4.00;2.30;;;19.60;57.00;;;;;;5017536;28;20395;-58
2022/04/17 02:42:28;;;;;;;4.47;2.40;;;19.60;57.00;;;;;;5018836;28;20481;-59
2022/04/17 02:44:54;;;;;;;4.35;2.40;;;19.60;57.10;;;;;;5018698;28;20029;-59
2022/04/17 02:50:04;;;;;;;6.30;2.45;;;19.60;57.00;;;;;;5014892;28;20405;-59
2022/04/17 02:52:30;;;;;;;5.40;2.50;;;19.60;57.10;;;;;;5016047;28;20021;-59
2022/04/17 02:54:56;;;;;;;4.38;2.22;;;19.50;57.00;;;;;;5017108;28;20037;-58
2022/04/17 02:57:21;;;;;;;4.57;2.40;;;19.50;57.00;;;;;;5015154;28;20072;-59
2022/04/17 02:59:47;;;;;;;4.50;2.35;;;19.50;57.10;;;;;;5016296;28;20112;-58
2022/04/17 03:07:41;;;;;;;6.07;2.63;;;19.50;57.10;;;;;;5014605;28;20088;-59
2022/04/17 03:10:07;;;;;;;5.32;2.10;;;19.50;57.10;;;;;;5015669;28;20026;-59
2022/04/17 03:12:36;;;;;;;4.30;2.42;;;19.50;57.10;;;;;;5016464;28;20040;-59
2022/04/17 03:15:02;;;;;;;4.82;2.63;;;19.50;57.20;;;;;;5015195;28;20616;-58
2022/04/17 03:17:28;;;;;;;4.88;2.42;;;19.50;57.20;;;;;;5018911;28;20033;-59
2022/04/17 03:19:54;;;;;;;4.95;2.40;;;19.40;57.30;;;;;;5015254;28;20426;-59
2022/04/17 03:22:25;;;;;;;5.30;2.40;;;19.40;57.10;;;;;;5013838;28;20021;-59
2022/04/17 03:24:51;;;;;;;4.05;2.47;;;19.40;57.20;;;;;;5017115;28;20034;-59
2022/04/17 03:27:17;;;;;;;3.65;2.15;;;19.40;57.10;;;;;;5013753;28;20029;-58
2022/04/17 03:29:43;;;;;;;3.92;2.20;;;19.40;57.20;;;;;;5014371;28;20030;-59
2022/04/17 03:32:08;;;;;;;4.30;2.38;;;19.40;57.20;;;;;;5027308;28;20030;-59
2022/04/17 03:34:34;;;;;;;4.45;2.40;;;19.40;57.20;;;;;;5015739;28;20482;-59
2022/04/17 03:37:00;;;;;;;4.05;2.28;;;19.40;57.20;;;;;;5015170;28;20033;-58
2022/04/17 03:39:25;;;;;;;4.10;2.53;;;19.40;57.10;;;;;;5014947;28;20029;-59
2022/04/17 03:41:53;;;;;;;3.95;2.20;;;19.30;57.20;;;;;;5016790;28;20526;-58
2022/04/17 03:44:19;;;;;;;4.32;2.28;;;19.30;57.30;;;;;;5013841;28;20040;-59
2022/04/17 03:46:45;;;;;;;4.55;2.20;;;19.30;57.10;;;;;;5014904;28;20710;-58
2022/04/17 03:49:11;;;;;;;5.93;2.72;;;19.30;57.10;;;;;;5015106;28;20036;-58
2022/04/17 03:51:37;;;;;;;4.93;2.70;;;19.30;57.20;;;;;;5014502;28;21670;-58
2022/04/17 03:54:02;;;;;;;4.78;2.65;;;19.30;57.20;;;;;;5013618;28;20025;-59
2022/04/17 03:56:28;;;;;;;4.07;2.45;;;19.30;57.20;;;;;;5013719;28;20032;-59
2022/04/17 03:58:54;;;;;;;4.55;2.42;;;19.30;57.20;;;;;;5015029;28;20033;-58
2022/04/17 04:01:19;;;;;;;4.47;2.60;;;19.30;57.00;;;;;;5013822;28;20044;-59
2022/04/17 04:03:46;;;;;;;4.72;2.50;;;19.30;57.10;;;;;;5015568;28;20029;-59
2022/04/17 04:06:11;;;;;;;4.53;2.47;;;19.20;57.10;;;;;;5013209;28;20505;-59
2022/04/17 04:08:37;;;;;;;4.15;2.60;;;19.20;57.10;;;;;;5012670;28;20026;-59
2022/04/17 04:11:03;;;;;;;3.70;2.20;;;19.20;57.10;;;;;;5013901;28;20033;-59
2022/04/17 04:13:28;;;;;;;4.85;2.47;;;19.20;57.10;;;;;;5017314;28;20707;-58
2022/04/17 04:15:57;;;;;;;3.65;2.30;;;19.20;57.00;;;;;;5018459;28;20126;-58
2022/04/17 04:18:22;;;;;;;4.93;2.50;;;19.20;57.10;;;;;;5016876;28;20169;-59
2022/04/17 04:20:48;;;;;;;3.92;2.45;;;19.20;57.10;;;;;;5012787;28;20022;-59
2022/04/17 04:23:13;;;;;;;4.47;2.55;;;19.20;57.00;;;;;;5014612;28;20482;-58
2022/04/17 04:25:39;;;;;;;4.35;2.45;;;19.20;57.00;;;;;;5014225;28;20509;-59
2022/04/17 04:30:49;;;;;;;4.22;2.55;;;19.20;57.00;;;;;;5016320;28;20037;-58
2022/04/17 04:33:15;;;;;;;4.35;2.40;;;19.10;56.90;;;;;;5013509;28;20030;-59
2022/04/17 04:35:40;;;;;;;4.25;2.30;;;19.20;57.00;;;;;;5016055;28;20053;-59
2022/04/17 04:38:07;;;;;;;4.13;2.47;;;19.10;57.00;;;;;;5013901;28;20121;-59
2022/04/17 04:40:33;;;;;;;4.35;2.30;;;19.10;57.00;;;;;;5012742;28;20033;-58
2022/04/17 04:42:59;;;;;;;3.80;2.47;;;19.10;56.90;;;;;;5016074;28;20041;-58
2022/04/17 04:48:09;;;;;;;4.75;2.40;;;19.10;56.90;;;;;;5015486;28;20176;-58
2022/04/17 04:50:35;;;;;;;3.45;2.20;;;19.10;57.10;;;;;;5012550;28;20151;-58
2022/04/17 04:53:01;;;;;;;3.45;2.10;;;19.10;57.00;;;;;;5013440;28;20025;-58
2022/04/17 04:55:28;;;;;;;4.18;2.30;;;19.00;57.00;;;;;;5015356;28;20034;-58
2022/04/17 04:57:53;;;;;;;3.80;2.38;;;19.10;57.00;;;;;;5015597;28;20076;-59
2022/04/17 05:00:19;;;;;;;4.43;2.45;;;19.00;57.00;;;;;;5011844;28;20112;-58
2022/04/17 05:02:44;;;;;;;4.28;2.58;;;19.00;56.90;;;;;;5013457;28;20120;-59
2022/04/17 05:05:10;;;;;;;3.20;2.15;;;19.00;57.00;;;;;;5012112;28;20025;-59
2022/04/17 05:07:36;;;;;;;3.38;2.17;;;19.00;56.90;;;;;;5014951;28;20057;-58
2022/04/17 05:10:03;;;;;;;4.03;2.13;;;19.00;57.00;;;;;;5015942;28;20038;-59
2022/04/17 05:12:29;;;;;;;4.55;2.25;;;19.00;57.00;;;;;;5011720;28;20603;-58
2022/04/17 05:14:55;;;;;;;4.00;2.20;;;19.00;56.90;;;;;;5014235;28;20030;-58
2022/04/17 05:17:20;;;;;;;3.53;2.28;;;19.00;56.90;;;;;;5016234;28;20038;-58
2022/04/17 05:19:46;;;;;;;4.60;2.20;;;19.00;57.00;;;;;;5016036;28;20494;-59
2022/04/17 05:22:16;;;;;;;4.22;2.40;;;19.00;57.00;;;;;;5015603;28;20037;-58
2022/04/17 05:24:43;;;;;;;3.08;2.10;;;18.90;57.00;;;;;;5018434;28;20498;-58
2022/04/17 05:27:08;;;;;;;3.40;2.25;;;18.90;56.90;;;;;;5017697;28;20037;-59
2022/04/17 05:29:34;;;;;;;3.70;2.20;;;18.90;56.90;;;;;;5015530;28;20057;-58
2022/04/17 05:32:03;;;;;;;4.38;2.25;;;18.90;56.80;;;;;;5016801;28;20030;-59
2022/04/17 05:34:28;;;;;;;3.88;2.22;;;18.90;56.90;;;;;;5017435;28;20033;-59
2022/04/17 05:36:54;;;;;;;3.38;2.20;;;18.90;57.00;;;;;;5019634;28;20045;-58
2022/04/17 05:39:20;;;;;;;5.10;2.55;;;18.90;57.10;;;;;;5018936;28;20108;-59
2022/04/17 05:41:45;;;;;;;4.50;2.20;;;18.90;57.10;;;;;;5020916;28;20398;-58
2022/04/17 05:44:11;;;;;;;3.35;2.10;;;18.90;57.00;;;;;;5014386;28;20034;-59
2022/04/17 05:46:37;;;;;;;3.13;2.20;;;18.90;56.90;;;;;;5023884;28;20049;-58
2022/04/17 05:49:06;;;;;;;3.85;2.30;;;18.90;56.90;;;;;;5026598;28;20104;-59
2022/04/17 05:51:36;;;;;;;3.38;2.13;;;18.90;56.90;;;;;;5021028;28;20449;-58
2022/04/17 05:54:05;;;;;;;3.20;2.13;;;18.90;56.90;;;;;;5017759;28;20033;-59
2022/04/17 05:56:32;;;;;;;4.00;2.17;;;18.90;56.90;;;;;;5017564;28;20025;-59
2022/04/17 05:58:57;;;;;;;3.13;2.03;;;18.80;58.00;;;;;;5024655;28;20405;-58
2022/04/17 06:01:24;;;;;;;3.75;2.10;;;18.80;56.90;;;;;;5020943;28;20022;-58
2022/04/17 06:03:52;;;;;;;3.25;2.10;;;18.80;56.90;;;;;;5016161;28;20037;-58
2022/04/17 06:06:18;;;;;;;2.80;1.83;;;18.80;57.00;;;;;;5017312;28;20029;-58
2022/04/17 06:08:45;;;;;;;3.28;2.20;;;18.80;57.00;;;;;;5021437;28;20029;-58
2022/04/17 06:11:10;;;;;;;3.72;2.30;;;18.80;57.90;;;;;;5018540;28;20029;-58
2022/04/17 06:13:36;;;;;;;4.32;2.25;;;18.80;56.90;;;;;;5017883;28;20083;-58
2022/04/17 06:16:02;;;;;;;3.33;2.10;;;18.80;56.90;;;;;;5023422;28;20131;-58
2022/04/17 06:18:27;;;;;;;5.03;2.40;;;18.80;56.70;;;;;;5019728;28;20486;-58
2022/04/17 06:20:53;;;;;;;3.05;2.15;;;18.80;56.80;;;;;;5019620;28;20032;-58
2022/04/17 06:23:18;;;;;;;4.13;2.20;;;18.80;56.90;;;;;;5015951;28;20104;-58
2022/04/17 06:25:44;;;;;;;3.40;2.22;;;18.70;56.80;;;;;;5015823;28;20025;-58
2022/04/17 06:28:10;;;;;;;3.58;2.22;;;18.70;56.60;;;;;;5014032;28;20117;-58
2022/04/17 06:30:35;;;;;;;3.85;2.10;;;18.70;56.70;;;;;;5018106;28;20393;-59
2022/04/17 06:33:01;;;;;;;4.47;2.03;;;18.80;56.40;;;;;;5019218;28;20498;-59
2022/04/17 06:35:27;;;;;;;3.88;2.40;;;18.70;56.40;;;;;;5016475;28;20025;-58
2022/04/17 06:38:00;;;;;;;3.25;2.00;;;18.70;56.70;;;;;;5022202;28;20166;-58
2022/04/17 06:40:29;;;;;;;5.07;2.20;;;18.70;56.70;;;;;;5012246;28;20080;-58
2022/04/17 06:42:58;;;;;;;3.40;2.30;;;18.70;56.70;;;;;;5020619;28;20506;-59
2022/04/17 06:45:24;;;;;;;4.70;2.28;;;18.70;56.20;;;;;;5014101;28;20038;-58
2022/04/17 06:47:50;;;;;;;2.90;2.00;;;18.70;56.20;;;;;;5014304;28;20033;-59
2022/04/17 06:50:16;;;;;;;4.25;2.10;;;18.80;56.30;;;;;;5016854;28;20067;-58
2022/04/17 06:52:42;;;;;;;2.65;1.90;;;18.70;56.40;;;;;;5015711;28;20025;-59
2022/04/17 06:55:11;;;;;;;3.50;1.95;;;18.80;56.40;;;;;;5014609;28;20022;-59
2022/04/17 06:57:39;;;;;;;4.10;2.33;;;18.70;56.30;;;;;;5017491;28;22596;-59
2022/04/17 07:00:09;;;;;;;4.38;2.08;;;18.70;56.30;;;;;;5018566;28;20048;-58
2022/04/17 07:02:35;;;;;;;3.15;2.05;;;18.70;56.10;;;;;;5018074;28;20038;-59
2022/04/17 07:05:01;;;;;;;2.97;2.00;;;18.80;56.30;;;;;;5016018;28;20493;-59
2022/04/17 07:07:27;;;;;;;3.92;2.20;;;18.80;56.10;;;;;;5017435;28;20117;-59
2022/04/17 07:09:52;;;;;;;3.92;2.20;;;18.70;56.10;;;;;;5020818;28;20035;-59
2022/04/17 07:12:18;;;;;;;3.78;2.10;;;18.70;56.10;;;;;;5017318;28;20057;-59
2022/04/17 07:14:44;;;;;;;4.78;2.05;;;18.80;56.40;;;;;;5019046;28;20025;-59
2022/04/17 07:17:09;;;;;;;4.93;2.20;;;18.80;56.60;;;;;;5021657;28;20044;-59
2022/04/17 07:19:35;;;;;;;6.30;2.20;;;18.80;56.70;;;;;;5020799;28;20018;-59
2022/04/17 07:22:00;;;;;;;4.82;2.08;;;18.80;56.70;;;;;;5019279;28;20036;-59
2022/04/17 07:24:26;;;;;;;4.25;2.00;;;18.90;56.80;;;;;;5018443;28;20030;-58
2022/04/17 07:26:56;;;;;;;3.72;1.98;;;18.90;56.80;;;;;;5010725;28;20091;-59
2022/04/17 07:29:22;;;;;;;4.45;2.28;;;18.90;56.80;;;;;;5019490;28;20041;-59
2022/04/17 07:31:51;;;;;;;5.55;1.95;;;18.90;56.80;;;;;;5018370;28;20494;-59
2022/04/17 07:34:20;;;;;;;7.10;2.28;;;18.90;56.90;;;;;;5011425;28;20025;-59
2022/04/17 07:36:47;;;;;;;4.90;2.20;;;18.90;56.90;;;;;;5018228;28;20659;-59
2022/04/17 07:39:17;;;;;;;3.03;1.80;;;18.90;56.90;;;;;;5021969;28;20056;-59
2022/04/17 07:41:43;;;;;;;3.40;2.15;;;19.00;56.90;;;;;;5019235;28;20061;-60
2022/04/17 07:44:11;;;;;;;5.53;2.25;;;19.00;57.40;;;;;;5018751;28;20564;-59
2022/04/17 07:46:38;;;;;;;6.20;1.92;;;19.00;57.70;;;;;;5021782;28;20597;-59
2022/04/17 07:49:04;;;;;;;4.68;2.20;;;19.00;57.50;;;;;;5022262;28;20030;-59
2022/04/17 07:51:29;;;;;;;4.45;1.90;;;19.10;57.80;;;;;;5018797;28;20033;-59
2022/04/17 07:53:55;;;;;;;6.68;2.17;;;19.10;57.80;;;;;;5017567;28;20477;-59
2022/04/17 07:56:21;;;;;;;5.78;2.10;;;19.10;57.80;;;;;;5019052;28;20064;-58
2022/04/17 07:58:47;;;;;;;7.15;2.10;;;19.10;58.00;;;;;;5016527;28;20492;-59
2022/04/17 08:01:14;;;;;;;6.88;2.20;;;19.10;57.90;;;;;;5024569;28;20027;-59
2022/04/17 08:06:05;;;;;;;7.35;2.40;;;19.20;58.30;;;;;;5016840;28;20184;-59
2022/04/17 08:08:32;;;;;;;7.72;2.05;;;19.20;58.20;;;;;;5025171;28;20036;-59
2022/04/17 08:10:58;;;;;;;6.15;1.85;;;19.20;58.00;;;;;;5014730;28;20025;-59
2022/04/17 08:13:25;;;;;;;10.18;2.40;;;19.20;57.80;;;;;;5021330;28;20033;-59
2022/04/17 08:15:53;;;;;;;8.40;2.20;;;19.10;57.80;;;;;;5019754;28;20088;-59
2022/04/17 08:18:18;;;;;;;4.25;2.08;;;19.20;57.90;;;;;;5018229;28;20037;-59
2022/04/17 08:20:44;;;;;;;4.82;2.08;;;19.20;57.90;;;;;;5017043;28;20572;-59
2022/04/17 08:23:10;;;;;;;4.43;1.90;;;19.10;57.80;;;;;;5022016;28;20737;-59
2022/04/17 08:25:36;;;;;;;6.25;2.10;;;19.20;57.90;;;;;;5023586;28;20101;-59
2022/04/17 08:28:02;;;;;;;6.80;2.25;;;19.10;57.90;;;;;;5024204;28;20040;-59
2022/04/17 08:30:31;;;;;;;5.85;2.15;;;19.20;57.80;;;;;;5019299;28;20097;-59
2022/04/17 08:32:59;;;;;;;4.43;1.95;;;19.20;58.20;;;;;;5025857;28;20079;-59
2022/04/17 08:35:24;;;;;;;4.88;2.13;;;19.20;57.80;;;;;;5019960;28;20022;-59
2022/04/17 08:37:50;;;;;;;7.20;2.00;;;19.20;57.80;;;;;;5018445;28;20052;-59
2022/04/17 08:40:16;;;;;;;6.07;2.13;;;19.10;57.70;;;;;;5017193;28;20022;-59
2022/04/17 08:42:42;;;;;;;6.18;2.17;;;19.20;57.70;;;;;;5010162;28;20111;-59
2022/04/17 08:45:11;;;;;;;5.00;1.90;;;19.20;57.70;;;;;;5016172;28;20022;-58
2022/04/17 08:47:38;;;;;;;6.63;1.90;;;19.20;57.70;;;;;;5015431;28;20044;-59
2022/04/17 08:50:13;;;;;;;6.53;2.10;;;19.20;57.80;;;;;;5014489;28;20042;-59
2022/04/17 08:52:39;;;;;;;5.75;2.40;;;19.20;57.80;;;;;;5013978;28;20107;-59
2022/04/17 08:55:05;;;;;;;4.72;1.80;;;19.20;58.00;;;;;;5022803;28;20060;-59
2022/04/17 08:57:31;;;;;;;5.82;2.03;;;19.20;57.80;;;;;;5018529;28;20449;-59
2022/04/17 08:59:57;;;;;;;6.22;2.10;;;19.30;57.80;;;;;;5015773;28;20149;-59
2022/04/17 09:02:22;;;;;;;5.75;2.00;;;19.20;57.70;;;;;;5018241;28;20037;-59
2022/04/17 09:04:48;;;;;;;5.53;2.00;;;19.20;57.70;;;;;;5015328;28;20048;-59
2022/04/17 09:07:14;;;;;;;4.40;1.90;;;19.30;57.70;;;;;;5019507;28;20048;-59
2022/04/17 09:09:41;;;;;;;3.78;1.95;;;19.30;57.80;;;;;;5019431;28;20033;-59
2022/04/17 09:12:07;;;;;;;6.15;2.03;;;19.30;57.60;;;;;;5016713;28;20026;-59
2022/04/17 09:14:39;;;;;;;4.00;1.90;;;19.30;58.60;;;;;;5015954;28;20399;-58
2022/04/17 09:17:09;;;;;;;5.47;1.80;;;19.30;57.60;;;;;;5020701;28;20041;-59
2022/04/17 09:19:35;;;;;;;7.38;2.08;;;19.30;57.60;;;;;;5013656;28;20410;-59
2022/04/17 09:22:01;;;;;;;5.28;2.10;;;19.30;57.50;;;;;;5012187;28;20026;-59
2022/04/17 09:24:27;;;;;;;4.22;1.98;;;19.40;57.50;;;;;;5021381;28;20394;-59
2022/04/17 09:26:53;;;;;;;4.78;2.00;;;19.40;57.40;;;;;;5023675;28;20025;-59
2022/04/17 09:29:20;;;;;;;7.30;1.90;;;19.40;57.30;;;;;;5025067;28;20156;-59
2022/04/17 09:31:46;;;;;;;6.28;2.05;;;19.50;58.30;;;;;;5021813;28;20395;-59
2022/04/17 09:34:11;;;;;;;5.32;1.92;;;19.50;57.30;;;;;;5024003;28;20512;-57
2022/04/17 09:36:38;;;;;;;7.07;2.08;;;19.50;57.20;;;;;;5026904;28;20034;-59
2022/04/17 09:39:14;;;;;;;6.80;1.80;;;19.60;57.20;;;;;;5023349;28;20039;-58
2022/04/17 09:41:58;;;;;;;9.80;2.40;;;19.60;57.30;;;;;;5022169;28;20029;-58
2022/04/17 09:44:46;;;;;;;5.33;2.10;;;19.60;59.10;;;;;;5021443;28;20398;-59
2022/04/17 09:47:19;;;;;;;5.10;2.20;;;19.70;57.90;;;;;;5022343;28;20110;-59
2022/04/17 09:50:02;;;;;;;42.17;22.05;;;19.70;57.70;;;;;;5018992;28;20029;-59
2022/04/17 09:52:31;;;;;;;93.07;55.70;;;19.70;56.10;;;;;;5016119;28;20017;-58
2022/04/17 09:54:58;;;;;;;66.57;41.03;;;19.60;56.50;;;;;;5018089;28;20121;-58
2022/04/17 09:57:34;;;;;;;73.60;48.45;;;19.70;56.20;;;;;;5019301;28;20065;-59
2022/04/17 10:00:16;;;;;;;56.28;31.92;;;19.60;57.90;;;;;;5019435;28;20479;-59
2022/04/17 10:02:46;;;;;;;43.35;26.10;;;19.60;57.60;;;;;;5019170;28;20425;-58
2022/04/17 10:05:13;;;;;;;28.80;16.98;;;19.60;56.60;;;;;;5020178;28;20104;-59
2022/04/17 10:07:41;;;;;;;23.65;12.73;;;19.60;56.30;;;;;;5022051;28;20036;-60
2022/04/17 10:10:07;;;;;;;17.02;8.82;;;19.70;55.40;;;;;;5019603;28;20029;-60
2022/04/17 10:12:34;;;;;;;15.18;8.45;;;19.60;54.20;;;;;;5019876;28;20041;-60
2022/04/17 10:15:04;;;;;;;10.73;6.07;;;19.60;55.30;;;;;;5018946;28;20686;-60
2022/04/17 10:17:30;;;;;;;13.35;6.68;;;19.60;54.70;;;;;;5020767;28;20045;-60
2022/04/17 10:19:55;;;;;;;15.50;7.10;;;19.70;54.70;;;;;;5018220;28;20028;-60
2022/04/17 10:22:21;;;;;;;12.85;6.03;;;19.80;55.30;;;;;;5005883;28;20544;-60
2022/04/17 10:24:51;;;;;;;11.05;6.35;;;19.80;56.10;;;;;;5024535;28;21305;-60
2022/04/17 10:27:43;;;;;;;21.10;13.90;;;19.80;56.20;;;;;;5019936;28;20501;-60
2022/04/17 10:30:15;;;;;;;13.00;6.47;;;19.90;56.20;;;;;;5004934;28;20017;-60
2022/04/17 10:33:18;;;;;;;12.77;6.30;;;19.90;56.30;;;;;;5017886;28;20084;-59
2022/04/17 10:35:50;;;;;;;12.25;6.93;;;19.90;56.40;;;;;;5022033;28;20036;-60
2022/04/17 10:38:31;;;;;;;12.35;6.80;;;20.00;56.80;;;;;;5025004;28;20041;-60
2022/04/17 10:40:59;;;;;;;11.57;5.85;;;20.00;56.70;;;;;;5020761;28;20489;-59
2022/04/17 10:43:32;;;;;;;14.93;6.70;;;20.00;56.80;;;;;;5022936;28;21891;-59
2022/04/17 10:46:10;;;;;;;10.82;5.72;;;20.00;57.00;;;;;;5023328;28;20049;-59
2022/04/17 10:48:46;;;;;;;12.50;5.82;;;20.00;57.00;;;;;;5017246;28;20541;-59
2022/04/17 10:51:22;;;;;;;12.07;5.70;;;20.00;57.10;;;;;;5023236;28;20031;-59
2022/04/17 10:54:04;;;;;;;11.55;5.60;;;20.10;57.10;;;;;;5021202;28;20116;-59
2022/04/17 10:56:33;;;;;;;9.20;5.50;;;20.10;57.20;;;;;;5015495;28;20119;-59
2022/04/17 10:59:00;;;;;;;11.32;5.25;;;20.20;57.30;;;;;;5014783;28;20483;-59
2022/04/17 11:01:41;;;;;;;12.77;5.07;;;20.20;57.40;;;;;;5018205;28;20021;-61
2022/04/17 11:04:25;;;;;;;11.05;5.18;;;20.20;57.40;;;;;;5016844;28;20030;-59
2022/04/17 11:07:11;;;;;;;9.15;4.55;;;20.20;57.40;;;;;;5020610;28;20044;-60
2022/04/17 11:09:42;;;;;;;12.88;5.15;;;20.30;57.30;;;;;;5018011;28;20124;-59
2022/04/17 11:12:17;;;;;;;9.98;4.40;;;20.40;57.70;;;;;;5016274;28;20450;-59
2022/04/17 11:15:01;;;;;;;11.23;4.55;;;20.50;57.70;;;;;;5021019;28;20114;-60
2022/04/17 11:17:31;;;;;;;14.88;4.43;;;20.60;57.50;;;;;;5016355;28;20120;-60
2022/04/17 11:19:59;;;;;;;12.00;4.47;;;20.70;57.30;;;;;;5021435;28;20059;-58
2022/04/17 11:22:35;;;;;;;12.30;4.13;;;20.70;56.90;;;;;;5018264;28;20037;-57
2022/04/17 11:25:08;;;;;;;11.00;4.05;;;20.80;56.80;;;;;;5018047;28;20053;-58
2022/04/17 11:27:41;;;;;;;14.88;4.20;;;20.80;56.70;;;;;;5014607;28;20030;-57
2022/04/17 11:30:27;;;;;;;8.55;4.10;;;20.90;56.60;;;;;;5011755;28;20083;-57
2022/04/17 11:32:53;;;;;;;10.55;4.03;;;20.80;56.60;;;;;;5020354;28;20048;-57
2022/04/17 11:35:26;;;;;;;9.23;4.22;;;20.80;56.20;;;;;;5020757;28;20379;-57
2022/04/17 11:37:55;;;;;;;10.05;3.95;;;20.80;56.00;;;;;;5019460;28;20026;-57
2022/04/17 11:40:22;;;;;;;9.68;4.22;;;20.90;55.90;;;;;;5018254;28;20123;-57
2022/04/17 11:42:49;;;;;;;10.00;4.10;;;20.80;55.90;;;;;;5019281;28;20013;-57
2022/04/17 11:45:20;;;;;;;9.50;4.10;;;20.90;55.70;;;;;;5013466;28;20061;-58
2022/04/17 11:47:47;;;;;;;10.00;4.20;;;20.90;55.60;;;;;;5017068;28;20022;-57
2022/04/17 11:50:21;;;;;;;7.90;4.10;;;21.00;55.50;;;;;;5019240;28;20532;-57
2022/04/17 11:52:50;;;;;;;10.88;4.40;;;21.00;55.70;;;;;;5047121;28;20030;-58
2022/04/17 11:55:16;;;;;;;13.30;4.80;;;21.00;55.60;;;;;;5012097;28;20578;-57
2022/04/17 11:57:41;;;;;;;11.43;4.70;;;21.10;55.90;;;;;;5022947;28;20076;-57
2022/04/17 12:00:08;;;;;;;10.15;5.05;;;21.00;55.80;;;;;;5018417;28;20160;-58
2022/04/17 12:02:36;;;;;;;13.18;5.32;;;21.00;55.90;;;;;;5020521;28;20038;-57
2022/04/17 12:05:08;;;;;;;12.10;5.88;;;21.10;55.60;;;;;;5009350;28;20398;-58
2022/04/17 12:07:34;;;;;;;13.13;5.32;;;21.00;55.50;;;;;;5013911;28;20049;-57
2022/04/17 12:10:07;;;;;;;12.90;6.50;;;21.00;56.10;;;;;;5014558;28;20036;-57
2022/04/17 12:12:37;;;;;;;13.38;6.80;;;21.00;56.20;;;;;;5019598;28;20630;-57
2022/04/17 12:15:04;;;;;;;20.60;7.93;;;21.10;57.40;;;;;;5019441;28;20029;-57
2022/04/17 12:17:31;;;;;;;15.93;7.63;;;21.20;57.40;;;;;;5014458;28;20065;-58
2022/04/17 12:19:57;;;;;;;14.80;7.68;;;21.10;57.20;;;;;;5013372;28;20030;-58
2022/04/17 12:22:22;;;;;;;20.30;7.85;;;21.30;57.60;;;;;;5020295;28;20693;-58
2022/04/17 12:24:48;;;;;;;17.55;7.70;;;21.30;57.60;;;;;;5013877;28;20099;-58
2022/04/17 12:27:14;;;;;;;14.90;8.52;;;21.40;57.60;;;;;;5012533;28;20055;-58
2022/04/17 12:29:41;;;;;;;18.75;9.20;;;21.40;57.50;;;;;;5012067;28;20033;-58
2022/04/17 12:32:14;;;;;;;16.10;8.90;;;21.50;58.20;;;;;;5008525;28;20032;-58
2022/04/17 12:34:45;;;;;;;16.33;9.80;;;21.50;58.50;;;;;;5052228;28;20026;-57
2022/04/17 12:37:25;;;;;;;20.80;9.50;;;21.40;58.00;;;;;;5017607;28;20122;-57
2022/04/17 12:39:51;;;;;;;16.75;10.15;;;21.40;58.20;;;;;;5023288;28;20049;-59
2022/04/17 12:42:17;;;;;;;16.90;10.20;;;21.40;58.30;;;;;;5023701;28;20025;-58
2022/04/17 12:44:44;;;;;;;20.88;11.05;;;21.40;58.90;;;;;;5015934;28;20116;-58
2022/04/17 12:47:16;;;;;;;16.83;10.55;;;21.40;58.20;;;;;;5014639;28;20061;-58
2022/04/17 12:49:42;;;;;;;17.33;10.80;;;21.40;58.50;;;;;;5018202;28;20037;-58
2022/04/17 12:52:08;;;;;;;20.08;11.00;;;21.50;58.90;;;;;;5016805;28;20099;-58
2022/04/17 12:54:36;;;;;;;15.05;10.25;;;21.50;59.30;;;;;;5018466;28;20493;-58
2022/04/17 12:57:10;;;;;;;18.42;10.25;;;21.50;59.10;;;;;;5017112;28;20605;-58
2022/04/17 12:59:42;;;;;;;15.98;10.02;;;21.60;59.20;;;;;;5017254;28;20095;-58
2022/04/17 13:02:19;;;;;;;18.45;10.48;;;21.60;59.60;;;;;;5020721;28;20514;-58
2022/04/17 13:04:46;;;;;;;18.77;10.38;;;21.50;59.30;;;;;;5015959;28;20447;-59